sensor_id;sensor_type;location;lat;lon;timestamp;pressure;altitude;pressure_sealevel;temperature;humidity
29197;BME280;62796;42.654;23.316;2023-04-10T00:00:04;94644.03;;;9.75;45.66
29197;BME280;62796;42.654;23.316;2023-04-10T00:02:31;94676.06;;;9.96;46.32
29197;BME280;62796;42.654;23.316;2023-04-10T00:04:56;94680.06;;;9.95;46.77
29197;BME280;62796;42.654;23.316;2023-04-10T00:07:22;94671.03;;;9.94;47.07
29197;BME280;62796;42.654;23.316;2023-04-10T00:09:47;94677.03;;;9.93;47.27
29197;BME280;62796;42.654;23.316;2023-04-10T00:12:13;94676.06;;;9.96;46.88
29197;BME280;62796;42.654;23.316;2023-04-10T00:14:39;94678.25;;;9.92;46.16
29197;BME280;62796;42.654;23.316;2023-04-10T00:17:05;94669.69;;;9.90;45.34
29197;BME280;62796;42.654;23.316;2023-04-10T00:19:31;94672.63;;;9.86;45.24
29197;BME280;62796;42.654;23.316;2023-04-10T00:21:56;94642.22;;;9.72;44.12
29197;BME280;62796;42.654;23.316;2023-04-10T00:24:22;94665.69;;;9.91;43.98
29197;BME280;62796;42.654;23.316;2023-04-10T00:26:47;94639.44;;;9.72;43.99
29197;BME280;62796;42.654;23.316;2023-04-10T00:29:13;94659.47;;;9.67;44.43
29197;BME280;62796;42.654;23.316;2023-04-10T00:31:38;94630.28;;;9.51;44.38
29197;BME280;62796;42.654;23.316;2023-04-10T00:34:04;94665.56;;;9.71;44.57
29197;BME280;62796;42.654;23.316;2023-04-10T00:36:30;94640.22;;;9.58;44.58
29197;BME280;62796;42.654;23.316;2023-04-10T00:38:56;94659.75;;;9.69;44.62
29197;BME280;62796;42.654;23.316;2023-04-10T00:41:21;94662.91;;;9.62;44.65
29197;BME280;62796;42.654;23.316;2023-04-10T00:43:48;94659.84;;;9.60;44.58
29197;BME280;62796;42.654;23.316;2023-04-10T00:46:14;94636.59;;;9.52;44.58
29197;BME280;62796;42.654;23.316;2023-04-10T00:48:40;94632.78;;;9.49;44.21
29197;BME280;62796;42.654;23.316;2023-04-10T00:51:05;94655.69;;;9.64;44.67
29197;BME280;62796;42.654;23.316;2023-04-10T00:53:31;94661.38;;;9.61;44.66
29197;BME280;62796;42.654;23.316;2023-04-10T00:55:57;94654.59;;;9.62;44.66
29197;BME280;62796;42.654;23.316;2023-04-10T00:58:23;94647.28;;;9.59;44.51
29197;BME280;62796;42.654;23.316;2023-04-10T01:00:48;94651.84;;;9.62;45.02
29197;BME280;62796;42.654;23.316;2023-04-10T01:03:17;94655.38;;;9.62;44.81
29197;BME280;62796;42.654;23.316;2023-04-10T01:06:05;94653.94;;;9.67;44.20
29197;BME280;62796;42.654;23.316;2023-04-10T01:11:06;94647.56;;;9.75;44.18
29197;BME280;62796;42.654;23.316;2023-04-10T01:13:45;94644.78;;;9.75;43.90
29197;BME280;62796;42.654;23.316;2023-04-10T01:16:19;94617.16;;;9.61;43.47
29197;BME280;62796;42.654;23.316;2023-04-10T01:18:56;94642.13;;;9.81;43.55
29197;BME280;62796;42.654;23.316;2023-04-10T01:21:23;94652.72;;;9.82;43.76
29197;BME280;62796;42.654;23.316;2023-04-10T01:24:20;94643.06;;;9.78;43.70
29197;BME280;62796;42.654;23.316;2023-04-10T01:29:22;94647.38;;;9.79;44.18
29197;BME280;62796;42.654;23.316;2023-04-10T01:32:01;94645.16;;;9.83;44.10
29197;BME280;62796;42.654;23.316;2023-04-10T01:34:40;94639.63;;;9.83;44.00
29197;BME280;62796;42.654;23.316;2023-04-10T01:37:12;94642.69;;;9.85;43.95
29197;BME280;62796;42.654;23.316;2023-04-10T01:39:41;94619.13;;;9.75;44.15
29197;BME280;62796;42.654;23.316;2023-04-10T01:42:10;94638.97;;;9.88;44.35
29197;BME280;62796;42.654;23.316;2023-04-10T01:44:40;94640.03;;;9.90;44.35
29197;BME280;62796;42.654;23.316;2023-04-10T01:47:06;94637.53;;;9.92;44.39
29197;BME280;62796;42.654;23.316;2023-04-10T01:49:32;94642.28;;;9.92;44.10
29197;BME280;62796;42.654;23.316;2023-04-10T01:51:59;94643.06;;;9.92;44.24
29197;BME280;62796;42.654;23.316;2023-04-10T01:54:27;94647.81;;;9.92;44.02
29197;BME280;62796;42.654;23.316;2023-04-10T01:56:55;94640.59;;;9.94;43.92
29197;BME280;62796;42.654;23.316;2023-04-10T01:59:21;94644.41;;;9.97;44.16
29197;BME280;62796;42.654;23.316;2023-04-10T02:01:47;94641.41;;;10.00;44.16
29197;BME280;62796;42.654;23.316;2023-04-10T02:04:12;94633.34;;;9.97;44.35
29197;BME280;62796;42.654;23.316;2023-04-10T02:09:39;94611.59;;;9.90;44.38
29197;BME280;62796;42.654;23.316;2023-04-10T02:12:15;94630.47;;;10.06;44.18
29197;BME280;62796;42.654;23.316;2023-04-10T02:14:44;94620.91;;;10.07;44.66
29197;BME280;62796;42.654;23.316;2023-04-10T02:17:13;94624.72;;;10.10;44.71
29197;BME280;62796;42.654;23.316;2023-04-10T02:19:40;94595.56;;;9.94;44.71
29197;BME280;62796;42.654;23.316;2023-04-10T02:22:06;94594.03;;;9.93;44.82
29197;BME280;62796;42.654;23.316;2023-04-10T02:24:33;94626.06;;;10.14;44.37
29197;BME280;62796;42.654;23.316;2023-04-10T02:26:59;94602.78;;;10.06;44.54
29197;BME280;62796;42.654;23.316;2023-04-10T02:29:25;94614.63;;;10.21;43.91
29197;BME280;62796;42.654;23.316;2023-04-10T02:31:51;94611.34;;;10.23;44.19
29197;BME280;62796;42.654;23.316;2023-04-10T02:34:16;94580.66;;;10.06;44.40
29197;BME280;62796;42.654;23.316;2023-04-10T02:36:42;94593.97;;;10.22;44.14
29197;BME280;62796;42.654;23.316;2023-04-10T02:39:07;94601.31;;;10.25;44.19
29197;BME280;62796;42.654;23.316;2023-04-10T02:41:33;94591.50;;;10.24;44.58
29197;BME280;62796;42.654;23.316;2023-04-10T02:43:58;94589.97;;;10.23;44.36
29197;BME280;62796;42.654;23.316;2023-04-10T02:46:24;94589.72;;;10.21;44.59
29197;BME280;62796;42.654;23.316;2023-04-10T02:48:51;94587.22;;;10.23;44.62
29197;BME280;62796;42.654;23.316;2023-04-10T02:51:16;94594.28;;;10.24;44.52
29197;BME280;62796;42.654;23.316;2023-04-10T02:53:42;94580.72;;;10.26;44.81
29197;BME280;62796;42.654;23.316;2023-04-10T02:56:07;94578.53;;;10.30;45.10
29197;BME280;62796;42.654;23.316;2023-04-10T02:58:33;94591.66;;;10.35;44.93
29197;BME280;62796;42.654;23.316;2023-04-10T03:01:00;94585.44;;;10.40;44.73
29197;BME280;62796;42.654;23.316;2023-04-10T03:03:25;94585.44;;;10.40;44.54
29197;BME280;62796;42.654;23.316;2023-04-10T03:05:52;94584.47;;;10.43;45.13
29197;BME280;62796;42.654;23.316;2023-04-10T03:08:17;94583.22;;;10.44;44.90
29197;BME280;62796;42.654;23.316;2023-04-10T03:10:44;94582.66;;;10.40;44.61
29197;BME280;62796;42.654;23.316;2023-04-10T03:13:10;94554.97;;;10.20;44.86
29197;BME280;62796;42.654;23.316;2023-04-10T03:15:36;94580.03;;;10.31;44.96
29197;BME280;62796;42.654;23.316;2023-04-10T03:18:05;94583.75;;;10.28;44.88
29197;BME280;62796;42.654;23.316;2023-04-10T03:20:37;94582.25;;;10.27;45.20
29197;BME280;62796;42.654;23.316;2023-04-10T03:23:06;94571.56;;;10.20;45.16
29197;BME280;62796;42.654;23.316;2023-04-10T03:25:34;94586.53;;;10.28;45.33
29197;BME280;62796;42.654;23.316;2023-04-10T03:28:00;94580.97;;;10.28;45.21
29197;BME280;62796;42.654;23.316;2023-04-10T03:30:26;94586.81;;;10.30;45.16
29197;BME280;62796;42.654;23.316;2023-04-10T03:32:51;94586.13;;;10.35;45.08
29197;BME280;62796;42.654;23.316;2023-04-10T03:35:17;94595.66;;;10.34;45.66
29197;BME280;62796;42.654;23.316;2023-04-10T03:37:42;94586.13;;;10.35;45.38
29197;BME280;62796;42.654;23.316;2023-04-10T03:40:09;94591.16;;;10.37;45.54
29197;BME280;62796;42.654;23.316;2023-04-10T03:42:35;94560.69;;;10.17;45.14
29197;BME280;62796;42.654;23.316;2023-04-10T03:45:00;94588.81;;;10.30;45.52
29197;BME280;62796;42.654;23.316;2023-04-10T03:47:29;94593.03;;;10.25;45.53
29197;BME280;62796;42.654;23.316;2023-04-10T03:49:55;94595.44;;;10.18;45.82
29197;BME280;62796;42.654;23.316;2023-04-10T03:52:20;94593.63;;;10.15;45.83
29197;BME280;62796;42.654;23.316;2023-04-10T03:54:46;94598.41;;;10.14;46.31
29197;BME280;62796;42.654;23.316;2023-04-10T03:57:12;94602.41;;;10.13;46.31
29197;BME280;62796;42.654;23.316;2023-04-10T03:59:37;94579.72;;;9.94;46.66
29197;BME280;62796;42.654;23.316;2023-04-10T04:02:02;94609.75;;;10.16;47.12
29197;BME280;62796;42.654;23.316;2023-04-10T04:04:28;94610.78;;;10.19;47.24
29197;BME280;62796;42.654;23.316;2023-04-10T04:06:55;94581.03;;;9.99;47.37
29197;BME280;62796;42.654;23.316;2023-04-10T04:09:20;94613.09;;;10.06;47.77
29197;BME280;62796;42.654;23.316;2023-04-10T04:11:46;94618.81;;;10.02;47.85
29197;BME280;62796;42.654;23.316;2023-04-10T04:14:11;94610.78;;;10.04;48.06
29197;BME280;62796;42.654;23.316;2023-04-10T04:16:37;94618.66;;;9.91;48.79
29197;BME280;62796;42.654;23.316;2023-04-10T04:19:02;94622.38;;;9.88;49.32
29197;BME280;62796;42.654;23.316;2023-04-10T04:21:28;94624.84;;;9.86;49.05
29197;BME280;62796;42.654;23.316;2023-04-10T04:23:53;94618.75;;;9.82;49.38
29197;BME280;62796;42.654;23.316;2023-04-10T04:26:19;94608.44;;;9.68;49.60
29197;BME280;62796;42.654;23.316;2023-04-10T04:28:45;94603.59;;;9.63;50.00
29197;BME280;62796;42.654;23.316;2023-04-10T04:31:11;94623.44;;;9.76;49.76
29197;BME280;62796;42.654;23.316;2023-04-10T04:33:36;94632.00;;;9.78;50.12
29197;BME280;62796;42.654;23.316;2023-04-10T04:36:02;94629.53;;;9.80;50.09
29197;BME280;62796;42.654;23.316;2023-04-10T04:38:27;94628.97;;;9.76;49.66
29197;BME280;62796;42.654;23.316;2023-04-10T04:40:53;94634.69;;;9.87;49.44
29197;BME280;62796;42.654;23.316;2023-04-10T04:43:18;94633.72;;;9.90;48.61
29197;BME280;62796;42.654;23.316;2023-04-10T04:45:44;94631.22;;;9.92;48.29
29197;BME280;62796;42.654;23.316;2023-04-10T04:48:09;94632.84;;;9.98;48.39
29197;BME280;62796;42.654;23.316;2023-04-10T04:50:34;94616.16;;;9.93;47.90
29197;BME280;62796;42.654;23.316;2023-04-10T04:53:00;94638.69;;;10.15;47.54
29197;BME280;62796;42.654;23.316;2023-04-10T04:55:25;94642.56;;;10.23;47.69
29197;BME280;62796;42.654;23.316;2023-04-10T04:57:52;94636.34;;;10.28;47.10
29197;BME280;62796;42.654;23.316;2023-04-10T05:00:17;94644.53;;;10.37;47.40
29197;BME280;62796;42.654;23.316;2023-04-10T05:02:42;94642.03;;;10.39;47.39
29197;BME280;62796;42.654;23.316;2023-04-10T05:05:08;94650.22;;;10.48;46.72
29197;BME280;62796;42.654;23.316;2023-04-10T05:07:33;94651.19;;;10.45;46.96
29197;BME280;62796;42.654;23.316;2023-04-10T05:09:59;94649.84;;;10.55;46.63
29197;BME280;62796;42.654;23.316;2023-04-10T05:12:24;94660.53;;;10.63;46.24
29197;BME280;62796;42.654;23.316;2023-04-10T05:14:50;94651.31;;;10.71;46.33
29197;BME280;62796;42.654;23.316;2023-04-10T05:17:15;94653.59;;;10.73;46.35
29197;BME280;62796;42.654;23.316;2023-04-10T05:19:41;94655.00;;;10.83;46.24
29197;BME280;62796;42.654;23.316;2023-04-10T05:22:07;94652.09;;;10.92;46.27
29197;BME280;62796;42.654;23.316;2023-04-10T05:24:32;94637.19;;;10.89;45.88
29197;BME280;62796;42.654;23.316;2023-04-10T05:26:57;94654.00;;;11.06;45.91
29197;BME280;62796;42.654;23.316;2023-04-10T05:29:23;94647.03;;;11.10;46.05
29197;BME280;62796;42.654;23.316;2023-04-10T05:31:49;94653.72;;;11.24;45.52
29197;BME280;62796;42.654;23.316;2023-04-10T05:34:15;94650.25;;;11.29;45.34
29197;BME280;62796;42.654;23.316;2023-04-10T05:36:41;94639.72;;;11.33;45.48
29197;BME280;62796;42.654;23.316;2023-04-10T05:39:06;94643.88;;;11.43;45.29
29197;BME280;62796;42.654;23.316;2023-04-10T05:41:32;94643.97;;;11.54;45.21
29197;BME280;62796;42.654;23.316;2023-04-10T05:43:57;94650.22;;;11.70;44.91
29197;BME280;62796;42.654;23.316;2023-04-10T05:46:23;94654.00;;;11.72;44.52
29197;BME280;62796;42.654;23.316;2023-04-10T05:48:48;94653.13;;;11.86;44.42
29197;BME280;62796;42.654;23.316;2023-04-10T05:51:13;94649.97;;;11.99;43.69
29197;BME280;62796;42.654;23.316;2023-04-10T05:53:39;94656.06;;;12.03;43.87
29197;BME280;62796;42.654;23.316;2023-04-10T05:56:05;94657.03;;;11.74;44.20
29197;BME280;62796;42.654;23.316;2023-04-10T05:58:30;94634.31;;;11.70;44.23
29197;BME280;62796;42.654;23.316;2023-04-10T06:00:56;94660.84;;;12.02;43.93
29197;BME280;62796;42.654;23.316;2023-04-10T06:03:21;94645.41;;;11.96;43.19
29197;BME280;62796;42.654;23.316;2023-04-10T06:05:47;94651.50;;;12.00;43.56
29197;BME280;62796;42.654;23.316;2023-04-10T06:08:13;94653.72;;;11.96;44.13
29197;BME280;62796;42.654;23.316;2023-04-10T06:10:39;94657.91;;;12.11;43.51
29197;BME280;62796;42.654;23.316;2023-04-10T06:13:05;94646.19;;;12.02;43.32
29197;BME280;62796;42.654;23.316;2023-04-10T06:15:30;94669.81;;;12.17;43.50
29197;BME280;62796;42.654;23.316;2023-04-10T06:17:56;94662.50;;;12.20;43.47
29197;BME280;62796;42.654;23.316;2023-04-10T06:20:22;94656.44;;;12.21;43.56
29197;BME280;62796;42.654;23.316;2023-04-10T06:22:48;94660.28;;;12.24;43.23
29197;BME280;62796;42.654;23.316;2023-04-10T06:25:13;94652.97;;;12.27;43.16
29197;BME280;62796;42.654;23.316;2023-04-10T06:27:39;94659.28;;;12.27;43.10
29197;BME280;62796;42.654;23.316;2023-04-10T06:30:05;94657.03;;;12.31;43.01
29197;BME280;62796;42.654;23.316;2023-04-10T06:32:31;94633.69;;;12.12;43.32
29197;BME280;62796;42.654;23.316;2023-04-10T06:34:56;94659.28;;;12.27;43.58
29197;BME280;62796;42.654;23.316;2023-04-10T06:37:28;94654.00;;;12.29;43.41
29197;BME280;62796;42.654;23.316;2023-04-10T06:42:30;94661.53;;;12.23;43.02
29197;BME280;62796;42.654;23.316;2023-04-10T06:44:55;94632.88;;;12.06;43.34
29197;BME280;62796;42.654;23.316;2023-04-10T06:47:21;94644.56;;;12.15;43.43
29197;BME280;62796;42.654;23.316;2023-04-10T06:49:46;94662.31;;;12.29;43.29
29197;BME280;62796;42.654;23.316;2023-04-10T06:52:12;94665.59;;;12.28;43.10
29197;BME280;62796;42.654;23.316;2023-04-10T06:54:37;94672.19;;;12.30;42.95
29197;BME280;62796;42.654;23.316;2023-04-10T06:57:02;94672.19;;;12.30;42.99
29197;BME280;62796;42.654;23.316;2023-04-10T06:59:28;94670.41;;;12.27;42.91
29197;BME280;62796;42.654;23.316;2023-04-10T07:01:53;94670.84;;;12.20;42.97
29197;BME280;62796;42.654;23.316;2023-04-10T07:04:19;94664.22;;;12.12;43.19
29197;BME280;62796;42.654;23.316;2023-04-10T07:06:45;94667.50;;;12.16;42.99
29197;BME280;62796;42.654;23.316;2023-04-10T07:09:10;94656.59;;;12.07;43.15
29197;BME280;62796;42.654;23.316;2023-04-10T07:11:36;94680.38;;;12.13;43.54
29197;BME280;62796;42.654;23.316;2023-04-10T07:14:01;94674.59;;;12.17;43.45
29197;BME280;62796;42.654;23.316;2023-04-10T07:16:27;94666.81;;;12.21;43.50
29197;BME280;62796;42.654;23.316;2023-04-10T07:18:53;94672.09;;;12.19;42.95
29197;BME280;62796;42.654;23.316;2023-04-10T07:21:19;94666.09;;;12.26;42.77
29197;BME280;62796;42.654;23.316;2023-04-10T07:23:44;94668.88;;;12.26;42.86
29197;BME280;62796;42.654;23.316;2023-04-10T07:26:10;94668.88;;;12.26;42.63
29197;BME280;62796;42.654;23.316;2023-04-10T07:28:35;94676.38;;;12.20;42.84
29197;BME280;62796;42.654;23.316;2023-04-10T07:31:02;94677.38;;;12.17;43.18
29197;BME280;62796;42.654;23.316;2023-04-10T07:33:28;94672.84;;;12.19;43.14
29197;BME280;62796;42.654;23.316;2023-04-10T07:35:53;94685.97;;;12.19;42.87
29197;BME280;62796;42.654;23.316;2023-04-10T07:38:19;94678.91;;;12.18;43.23
29197;BME280;62796;42.654;23.316;2023-04-10T07:40:45;94675.38;;;12.17;43.39
29197;BME280;62796;42.654;23.316;2023-04-10T07:43:10;94679.44;;;12.22;43.16
29197;BME280;62796;42.654;23.316;2023-04-10T07:45:36;94688.03;;;12.24;43.19
29197;BME280;62796;42.654;23.316;2023-04-10T07:48:01;94680.53;;;12.30;43.20
29197;BME280;62796;42.654;23.316;2023-04-10T07:50:28;94682.03;;;12.31;42.68
29197;BME280;62796;42.654;23.316;2023-04-10T07:52:54;94682.06;;;12.37;42.79
29197;BME280;62796;42.654;23.316;2023-04-10T07:55:20;94685.09;;;12.33;42.85
29197;BME280;62796;42.654;23.316;2023-04-10T07:57:46;94679.53;;;12.33;42.86
29197;BME280;62796;42.654;23.316;2023-04-10T08:00:12;94672.44;;;12.32;43.03
29197;BME280;62796;42.654;23.316;2023-04-10T08:02:37;94671.47;;;12.35;42.97
29197;BME280;62796;42.654;23.316;2023-04-10T08:05:05;94677.00;;;12.35;42.48
29197;BME280;62796;42.654;23.316;2023-04-10T08:07:30;94673.34;;;12.18;42.49
29197;BME280;62796;42.654;23.316;2023-04-10T08:09:56;94676.81;;;12.13;42.86
29197;BME280;62796;42.654;23.316;2023-04-10T08:12:21;94669.56;;;12.15;43.26
29197;BME280;62796;42.654;23.316;2023-04-10T08:14:47;94676.75;;;12.02;43.37
29197;BME280;62796;42.654;23.316;2023-04-10T08:17:13;94655.94;;;11.92;43.04
29197;BME280;62796;42.654;23.316;2023-04-10T08:19:42;94674.03;;;12.13;43.21
29197;BME280;62796;42.654;23.316;2023-04-10T08:22:07;94672.22;;;12.04;43.27
29197;BME280;62796;42.654;23.316;2023-04-10T08:24:33;94669.66;;;12.01;43.81
29197;BME280;62796;42.654;23.316;2023-04-10T08:26:58;94668.25;;;12.11;43.39
29197;BME280;62796;42.654;23.316;2023-04-10T08:29:24;94673.66;;;12.26;43.32
29197;BME280;62796;42.654;23.316;2023-04-10T08:31:50;94674.50;;;12.37;43.08
29197;BME280;62796;42.654;23.316;2023-04-10T08:34:15;94672.06;;;12.50;42.97
29197;BME280;62796;42.654;23.316;2023-04-10T08:36:41;94654.88;;;12.46;42.96
29197;BME280;62796;42.654;23.316;2023-04-10T08:39:06;94676.03;;;12.75;42.36
29197;BME280;62796;42.654;23.316;2023-04-10T08:41:32;94667.44;;;12.78;42.03
29197;BME280;62796;42.654;23.316;2023-04-10T08:43:57;94631.16;;;12.45;42.24
29197;BME280;62796;42.654;23.316;2023-04-10T08:46:23;94672.75;;;12.76;42.24
29197;BME280;62796;42.654;23.316;2023-04-10T08:49:00;94668.97;;;12.80;41.61
29197;BME280;62796;42.654;23.316;2023-04-10T08:51:38;94668.44;;;12.75;42.08
29197;BME280;62796;42.654;23.316;2023-04-10T08:54:08;94664.44;;;12.82;42.21
29197;BME280;62796;42.654;23.316;2023-04-10T08:56:36;94641.59;;;12.67;41.93
29197;BME280;62796;42.654;23.316;2023-04-10T08:59:04;94674.78;;;12.82;42.17
29197;BME280;62796;42.654;23.316;2023-04-10T09:01:31;94664.91;;;12.75;41.57
29197;BME280;62796;42.654;23.316;2023-04-10T09:03:58;94656.59;;;12.81;42.11
29197;BME280;62796;42.654;23.316;2023-04-10T09:06:24;94665.16;;;12.71;42.14
29197;BME280;62796;42.654;23.316;2023-04-10T09:08:50;94663.41;;;12.80;41.62
29197;BME280;62796;42.654;23.316;2023-04-10T09:11:15;94660.88;;;12.76;41.92
29197;BME280;62796;42.654;23.316;2023-04-10T09:13:42;94661.03;;;12.61;42.04
29197;BME280;62796;42.654;23.316;2023-04-10T09:16:09;94650.72;;;12.67;41.66
29197;BME280;62796;42.654;23.316;2023-04-10T09:21:11;94632.69;;;12.57;41.56
29197;BME280;62796;42.654;23.316;2023-04-10T09:23:37;94651.97;;;12.66;41.23
29197;BME280;62796;42.654;23.316;2023-04-10T09:26:28;94641.31;;;12.59;40.71
29197;BME280;62796;42.654;23.316;2023-04-10T09:29:02;94650.13;;;12.58;41.32
29197;BME280;62796;42.654;23.316;2023-04-10T09:31:35;94645.75;;;12.46;41.68
29197;BME280;62796;42.654;23.316;2023-04-10T09:34:07;94653.38;;;12.45;40.65
29197;BME280;62796;42.654;23.316;2023-04-10T09:36:33;94653.88;;;12.49;42.12
29197;BME280;62796;42.654;23.316;2023-04-10T09:38:58;94640.75;;;12.50;41.71
29197;BME280;62796;42.654;23.316;2023-04-10T09:41:24;94646.31;;;12.50;41.62
29197;BME280;62796;42.654;23.316;2023-04-10T09:44:04;94646.53;;;12.46;41.60
29197;BME280;62796;42.654;23.316;2023-04-10T09:46:31;94642.75;;;12.49;42.21
29197;BME280;62796;42.654;23.316;2023-04-10T09:48:56;94622.53;;;12.43;41.87
29197;BME280;62796;42.654;23.316;2023-04-10T09:51:27;94643.09;;;12.57;42.51
29197;BME280;62796;42.654;23.316;2023-04-10T09:53:56;94646.16;;;12.64;42.62
29197;BME280;62796;42.654;23.316;2023-04-10T09:56:22;94643.41;;;12.70;42.77
29197;BME280;62796;42.654;23.316;2023-04-10T09:58:50;94639.38;;;12.71;41.54
29197;BME280;62796;42.654;23.316;2023-04-10T10:01:18;94635.88;;;12.82;41.92
29197;BME280;62796;42.654;23.316;2023-04-10T10:03:45;94617.22;;;12.88;41.71
29197;BME280;62796;42.654;23.316;2023-04-10T10:06:11;94616.97;;;12.91;41.31
29197;BME280;62796;42.654;23.316;2023-04-10T10:08:36;94624.94;;;13.15;40.88
29197;BME280;62796;42.654;23.316;2023-04-10T10:11:05;94612.31;;;13.14;40.64
29197;BME280;62796;42.654;23.316;2023-04-10T10:13:40;94630.06;;;13.33;40.44
29197;BME280;62796;42.654;23.316;2023-04-10T10:21:18;94613.91;;;13.48;38.54
29197;BME280;62796;42.654;23.316;2023-04-10T10:23:46;94609.63;;;13.53;38.53
29197;BME280;62796;42.654;23.316;2023-04-10T10:26:13;94610.38;;;13.53;38.58
29197;BME280;62796;42.654;23.316;2023-04-10T10:28:39;94597.75;;;13.52;38.53
29197;BME280;62796;42.654;23.316;2023-04-10T10:31:06;94584.31;;;13.40;38.47
29197;BME280;62796;42.654;23.316;2023-04-10T10:33:34;94604.09;;;13.58;37.83
29197;BME280;62796;42.654;23.316;2023-04-10T10:36:01;94583.31;;;13.43;37.55
29197;BME280;62796;42.654;23.316;2023-04-10T10:38:27;94597.50;;;13.61;36.39
29197;BME280;62796;42.654;23.316;2023-04-10T10:46:08;94574.47;;;13.66;36.98
29197;BME280;62796;42.654;23.316;2023-04-10T10:48:35;94580.56;;;13.81;36.77
29197;BME280;62796;42.654;23.316;2023-04-10T10:51:01;94546.91;;;13.68;36.10
29197;BME280;62796;42.654;23.316;2023-04-10T10:53:43;94569.19;;;13.85;36.00
29197;BME280;62796;42.654;23.316;2023-04-10T10:58:48;94576.03;;;14.01;36.56
29197;BME280;62796;42.654;23.316;2023-04-10T11:01:14;94568.91;;;14.11;36.58
29197;BME280;62796;42.654;23.316;2023-04-10T11:03:41;94560.06;;;14.18;36.46
29197;BME280;62796;42.654;23.316;2023-04-10T11:06:10;94559.78;;;14.27;36.74
29197;BME280;62796;42.654;23.316;2023-04-10T11:08:38;94559.72;;;14.66;36.50
29197;BME280;62796;42.654;23.316;2023-04-10T11:11:13;94553.78;;;14.91;35.40
29197;BME280;62796;42.654;23.316;2023-04-10T11:13:42;94544.31;;;15.17;34.68
29197;BME280;62796;42.654;23.316;2023-04-10T11:21:25;94536.53;;;15.80;33.44
29197;BME280;62796;42.654;23.316;2023-04-10T11:31:32;94504.88;;;15.37;33.25
29197;BME280;62796;42.654;23.316;2023-04-10T11:34:03;94522.94;;;15.25;33.19
29197;BME280;62796;42.654;23.316;2023-04-10T11:36:29;94526.53;;;15.20;34.68
29197;BME280;62796;42.654;23.316;2023-04-10T11:41:31;94528.88;;;14.47;37.26
29197;BME280;62796;42.654;23.316;2023-04-10T11:43:58;94529.91;;;14.22;37.84
29197;BME280;62796;42.654;23.316;2023-04-10T11:46:23;94524.66;;;13.79;39.62
29197;BME280;62796;42.654;23.316;2023-04-10T11:48:57;94497.78;;;13.32;38.77
29197;BME280;62796;42.654;23.316;2023-04-10T11:51:22;94497.31;;;13.61;38.13
29197;BME280;62796;42.654;23.316;2023-04-10T11:53:48;94530.69;;;13.89;39.99
29197;BME280;62796;42.654;23.316;2023-04-10T11:56:18;94525.13;;;13.89;37.79
29197;BME280;62796;42.654;23.316;2023-04-10T11:58:48;94487.47;;;13.49;38.14
29197;BME280;62796;42.654;23.316;2023-04-10T12:01:14;94505.41;;;13.43;37.94
29197;BME280;62796;42.654;23.316;2023-04-10T12:03:43;94497.56;;;13.47;38.43
29197;BME280;62796;42.654;23.316;2023-04-10T12:06:12;94513.75;;;13.48;38.78
29197;BME280;62796;42.654;23.316;2023-04-10T12:08:43;94517.53;;;13.56;38.48
29197;BME280;62796;42.654;23.316;2023-04-10T12:11:13;94502.84;;;13.17;38.26
29197;BME280;62796;42.654;23.316;2023-04-10T12:13:41;94511.19;;;13.17;37.99
29197;BME280;62796;42.654;23.316;2023-04-10T12:16:09;94522.31;;;13.17;37.99
29197;BME280;62796;42.654;23.316;2023-04-10T12:18:35;94527.13;;;13.22;38.16
29197;BME280;62796;42.654;23.316;2023-04-10T12:21:01;94527.91;;;13.28;39.19
29197;BME280;62796;42.654;23.316;2023-04-10T12:23:29;94526.59;;;13.18;41.06
29197;BME280;62796;42.654;23.316;2023-04-10T12:26:11;94531.03;;;12.88;42.48
29197;BME280;62796;42.654;23.316;2023-04-10T12:28:38;94546.75;;;12.37;43.96
29197;BME280;62796;42.654;23.316;2023-04-10T12:31:04;94547.28;;;12.41;44.39
29197;BME280;62796;42.654;23.316;2023-04-10T12:33:29;94547.78;;;11.97;46.44
29197;BME280;62796;42.654;23.316;2023-04-10T12:35:55;94535.03;;;11.54;48.12
29197;BME280;62796;42.654;23.316;2023-04-10T12:38:40;94547.16;;;11.56;49.72
29197;BME280;62796;42.654;23.316;2023-04-10T12:41:08;94548.75;;;11.11;51.59
29197;BME280;62796;42.654;23.316;2023-04-10T12:43:36;94537.28;;;10.98;52.09
29197;BME280;62796;42.654;23.316;2023-04-10T12:46:03;94539.25;;;10.72;50.94
29197;BME280;62796;42.654;23.316;2023-04-10T12:48:29;94533.91;;;10.89;50.92
29197;BME280;62796;42.654;23.316;2023-04-10T12:50:54;94517.78;;;10.67;50.68
29197;BME280;62796;42.654;23.316;2023-04-10T12:53:20;94539.56;;;11.00;50.04
29197;BME280;62796;42.654;23.316;2023-04-10T12:56:00;94536.72;;;11.20;47.53
29197;BME280;62796;42.654;23.316;2023-04-10T12:58:26;94537.03;;;11.53;46.67
29197;BME280;62796;42.654;23.316;2023-04-10T13:00:53;94545.59;;;11.76;45.58
29197;BME280;62796;42.654;23.316;2023-04-10T13:03:19;94526.47;;;11.83;45.22
29197;BME280;62796;42.654;23.316;2023-04-10T13:05:45;94539.88;;;12.27;44.40
29197;BME280;62796;42.654;23.316;2023-04-10T13:08:10;94530.97;;;12.65;43.64
29197;BME280;62796;42.654;23.316;2023-04-10T13:10:36;94521.00;;;13.07;42.79
29197;BME280;62796;42.654;23.316;2023-04-10T13:13:02;94525.88;;;13.45;43.02
29197;BME280;62796;42.654;23.316;2023-04-10T13:15:28;94519.81;;;13.80;42.15
29197;BME280;62796;42.654;23.316;2023-04-10T13:17:54;94512.19;;;14.14;41.09
29197;BME280;62796;42.654;23.316;2023-04-10T13:20:20;94516.38;;;14.65;40.33
29197;BME280;62796;42.654;23.316;2023-04-10T13:22:46;94507.94;;;15.33;38.65
29197;BME280;62796;42.654;23.316;2023-04-10T13:25:11;94514.34;;;15.23;38.03
29197;BME280;62796;42.654;23.316;2023-04-10T13:27:37;94494.81;;;15.17;38.17
29197;BME280;62796;42.654;23.316;2023-04-10T13:30:03;94492.84;;;15.53;37.37
29197;BME280;62796;42.654;23.316;2023-04-10T13:32:28;94497.38;;;15.91;36.79